Terminal Aerodrome Forecast
Issued by NWS Atlanta, GA

Home | Current Version | Previous Version | Text Only | Print | Product List | Glossary On
Versions: 1 2 3 4 5 6 7 8 9 10 11 12 13 14 15 16 17 18 19 20 21 22 23 24 25 26 27 28 29 30 31 32 33 34 35 36 37 38 39 40
000
FTUS42 KFFC 231900 AAA
TAFATL
TAF AMD
KATL 231945Z 2320/2424 22005KT P6SM VCSH SCT040 BKN090
     FM240000 29004KT P6SM SCT040
     FM240700 25004KT P6SM SCT025
     FM241400 26007KT P6SM BKN025
     FM241600 28008G15KT 6SM -SHRA BKN035 PROB30 2416/2421 5SM TSRA
      BR BKN025CB
     FM242100 30007KT P6SM BKN035=

USA.gov is the U.S. government's official web portal to all federal, state and local government web resources and services.